sensor_id;sensor_type;location;lat;lon;timestamp;pressure;altitude;pressure_sealevel;temperature;humidity
74163;BME280;62515;52.758;5.076;2022-11-15T00:01:17;100893.88;;;5.42;100.00
74163;BME280;62515;52.758;5.076;2022-11-15T00:04:03;100900.22;;;5.38;100.00
74163;BME280;62515;52.758;5.076;2022-11-15T00:06:48;100896.81;;;5.36;100.00
74163;BME280;62515;52.758;5.076;2022-11-15T00:09:34;100901.28;;;5.34;100.00
74163;BME280;62515;52.758;5.076;2022-11-15T00:12:19;100890.91;;;5.31;100.00
74163;BME280;62515;52.758;5.076;2022-11-15T00:15:06;100900.22;;;5.38;100.00
74163;BME280;62515;52.758;5.076;2022-11-15T00:17:53;100886.97;;;5.40;100.00
74163;BME280;62515;52.758;5.076;2022-11-15T00:20:39;100872.91;;;5.39;100.00
74163;BME280;62515;52.758;5.076;2022-11-15T00:23:24;100874.53;;;5.42;100.00
74163;BME280;62515;52.758;5.076;2022-11-15T00:26:12;100860.31;;;5.44;100.00
74163;BME280;62515;52.758;5.076;2022-11-15T00:28:57;100879.72;;;5.43;100.00
74163;BME280;62515;52.758;5.076;2022-11-15T00:31:43;100876.16;;;5.44;100.00
74163;BME280;62515;52.758;5.076;2022-11-15T00:34:29;100872.59;;;5.45;100.00
74163;BME280;62515;52.758;5.076;2022-11-15T00:37:15;100869.00;;;5.46;100.00
74163;BME280;62515;52.758;5.076;2022-11-15T00:40:01;100858.53;;;5.45;100.00
74163;BME280;62515;52.758;5.076;2022-11-15T00:42:46;100861.03;;;5.48;100.00
74163;BME280;62515;52.758;5.076;2022-11-15T00:45:33;100853.81;;;5.51;100.00
74163;BME280;62515;52.758;5.076;2022-11-15T00:48:18;100854.56;;;5.53;100.00
74163;BME280;62515;52.758;5.076;2022-11-15T00:51:05;100850.09;;;5.55;100.00
74163;BME280;62515;52.758;5.076;2022-11-15T00:53:50;100849.94;;;5.58;100.00
74163;BME280;62515;52.758;5.076;2022-11-15T00:56:36;100848.97;;;5.59;100.00
74163;BME280;62515;52.758;5.076;2022-11-15T00:59:21;100858.47;;;5.63;100.00
74163;BME280;62515;52.758;5.076;2022-11-15T01:02:07;100861.09;;;5.63;100.00
74163;BME280;62515;52.758;5.076;2022-11-15T01:04:52;100860.78;;;5.69;100.00
74163;BME280;62515;52.758;5.076;2022-11-15T01:07:39;100853.81;;;5.68;100.00
74163;BME280;62515;52.758;5.076;2022-11-15T01:10:25;100851.94;;;5.70;100.00
74163;BME280;62515;52.758;5.076;2022-11-15T01:13:10;100849.84;;;5.77;100.00
74163;BME280;62515;52.758;5.076;2022-11-15T01:15:56;100852.81;;;5.88;100.00
74163;BME280;62515;52.758;5.076;2022-11-15T01:18:42;100844.66;;;5.93;100.00
74163;BME280;62515;52.758;5.076;2022-11-15T01:21:27;100842.78;;;5.95;100.00
74163;BME280;62515;52.758;5.076;2022-11-15T01:24:14;100836.41;;;5.99;100.00
74163;BME280;62515;52.758;5.076;2022-11-15T01:26:59;100825.59;;;6.03;100.00
74163;BME280;62515;52.758;5.076;2022-11-15T01:29:45;100823.66;;;6.07;100.00
74163;BME280;62515;52.758;5.076;2022-11-15T01:32:30;100823.25;;;6.14;100.00
74163;BME280;62515;52.758;5.076;2022-11-15T01:35:16;100813.59;;;6.13;100.00
74163;BME280;62515;52.758;5.076;2022-11-15T01:38:02;100810.88;;;6.15;100.00
74163;BME280;62515;52.758;5.076;2022-11-15T01:40:49;100803.91;;;6.14;100.00
74163;BME280;62515;52.758;5.076;2022-11-15T01:43:36;100815.22;;;6.16;100.00
74163;BME280;62515;52.758;5.076;2022-11-15T01:46:25;100828.25;;;6.19;100.00
74163;BME280;62515;52.758;5.076;2022-11-15T01:49:16;100819.41;;;6.20;100.00
74163;BME280;62515;52.758;5.076;2022-11-15T01:52:05;100825.47;;;6.22;100.00
74163;BME280;62515;52.758;5.076;2022-11-15T01:54:56;100827.19;;;6.23;100.00
74163;BME280;62515;52.758;5.076;2022-11-15T01:57:48;100827.19;;;6.23;100.00
74163;BME280;62515;52.758;5.076;2022-11-15T02:00:35;100823.44;;;6.27;100.00
74163;BME280;62515;52.758;5.076;2022-11-15T02:03:22;100826.09;;;6.27;100.00
74163;BME280;62515;52.758;5.076;2022-11-15T02:06:10;100819.84;;;6.28;100.00
74163;BME280;62515;52.758;5.076;2022-11-15T02:08:56;100805.53;;;6.32;100.00
74163;BME280;62515;52.758;5.076;2022-11-15T02:11:43;100804.59;;;6.33;100.00
74163;BME280;62515;52.758;5.076;2022-11-15T02:14:31;100792.25;;;6.34;100.00
74163;BME280;62515;52.758;5.076;2022-11-15T02:17:35;100796.34;;;6.39;100.00
74163;BME280;62515;52.758;5.076;2022-11-15T02:20:40;100799.72;;;6.41;100.00
74163;BME280;62515;52.758;5.076;2022-11-15T02:23:56;100793.44;;;6.44;100.00
74163;BME280;62515;52.758;5.076;2022-11-15T02:27:18;100783.81;;;6.43;100.00
74163;BME280;62515;52.758;5.076;2022-11-15T02:30:33;100773.81;;;6.48;100.00
74163;BME280;62515;52.758;5.076;2022-11-15T02:33:28;100774.50;;;6.51;100.00
74163;BME280;62515;52.758;5.076;2022-11-15T02:36:24;100764.78;;;6.52;100.00
74163;BME280;62515;52.758;5.076;2022-11-15T02:39:19;100764.72;;;6.53;100.00
74163;BME280;62515;52.758;5.076;2022-11-15T02:42:09;100753.16;;;6.54;100.00
74163;BME280;62515;52.758;5.076;2022-11-15T02:45:20;100747.72;;;6.57;100.00
74163;BME280;62515;52.758;5.076;2022-11-15T02:48:10;100751.13;;;6.59;100.00
74163;BME280;62515;52.758;5.076;2022-11-15T02:50:56;100747.34;;;6.63;100.00
74163;BME280;62515;52.758;5.076;2022-11-15T02:53:42;100742.94;;;6.64;100.00
74163;BME280;62515;52.758;5.076;2022-11-15T02:56:28;100734.00;;;6.66;100.00
74163;BME280;62515;52.758;5.076;2022-11-15T02:59:22;100731.34;;;6.66;100.00
74163;BME280;62515;52.758;5.076;2022-11-15T03:02:18;100736.63;;;6.66;100.00
74163;BME280;62515;52.758;5.076;2022-11-15T03:05:17;100732.09;;;6.68;100.00
74163;BME280;62515;52.758;5.076;2022-11-15T03:08:09;100727.56;;;6.70;100.00
74163;BME280;62515;52.758;5.076;2022-11-15T03:11:03;100713.47;;;6.70;100.00
74163;BME280;62515;52.758;5.076;2022-11-15T03:13:53;100707.38;;;6.69;100.00
74163;BME280;62515;52.758;5.076;2022-11-15T03:16:44;100707.09;;;6.74;100.00
74163;BME280;62515;52.758;5.076;2022-11-15T03:19:35;100700.75;;;6.76;100.00
74163;BME280;62515;52.758;5.076;2022-11-15T03:22:26;100697.13;;;6.79;100.00
74163;BME280;62515;52.758;5.076;2022-11-15T03:25:18;100707.59;;;6.80;100.00
74163;BME280;62515;52.758;5.076;2022-11-15T03:28:07;100697.00;;;6.80;100.00
74163;BME280;62515;52.758;5.076;2022-11-15T03:30:55;100695.88;;;6.84;100.00
74163;BME280;62515;52.758;5.076;2022-11-15T03:33:42;100683.41;;;6.87;100.00
74163;BME280;62515;52.758;5.076;2022-11-15T03:36:30;100695.53;;;6.91;100.00
74163;BME280;62515;52.758;5.076;2022-11-15T03:39:19;100691.66;;;6.96;100.00
74163;BME280;62515;52.758;5.076;2022-11-15T03:42:13;100688.75;;;7.01;100.00
74163;BME280;62515;52.758;5.076;2022-11-15T03:45:05;100677.06;;;7.05;100.00
74163;BME280;62515;52.758;5.076;2022-11-15T03:47:59;100680.44;;;7.07;100.00
74163;BME280;62515;52.758;5.076;2022-11-15T03:50:47;100682.72;;;7.13;100.00
74163;BME280;62515;52.758;5.076;2022-11-15T03:53:33;100685.00;;;7.19;100.00
74163;BME280;62515;52.758;5.076;2022-11-15T03:56:20;100687.13;;;7.28;100.00
74163;BME280;62515;52.758;5.076;2022-11-15T03:59:06;100684.28;;;7.31;100.00
74163;BME280;62515;52.758;5.076;2022-11-15T04:01:51;100675.31;;;7.33;100.00
74163;BME280;62515;52.758;5.076;2022-11-15T04:04:36;100677.50;;;7.41;100.00
74163;BME280;62515;52.758;5.076;2022-11-15T04:07:22;100678.03;;;7.46;100.00
74163;BME280;62515;52.758;5.076;2022-11-15T04:10:08;100683.91;;;7.51;100.00
74163;BME280;62515;52.758;5.076;2022-11-15T04:12:56;100680.78;;;7.59;100.00
74163;BME280;62515;52.758;5.076;2022-11-15T04:15:41;100680.72;;;7.60;100.00
74163;BME280;62515;52.758;5.076;2022-11-15T04:18:26;100677.75;;;7.65;100.00
74163;BME280;62515;52.758;5.076;2022-11-15T04:21:13;100672.84;;;7.73;100.00
74163;BME280;62515;52.758;5.076;2022-11-15T04:24:17;100679.00;;;7.73;100.00
74163;BME280;62515;52.758;5.076;2022-11-15T04:27:03;100671.41;;;7.81;100.00
74163;BME280;62515;52.758;5.076;2022-11-15T04:29:50;100668.38;;;7.87;100.00
74163;BME280;62515;52.758;5.076;2022-11-15T04:32:35;100668.94;;;7.93;100.00
74163;BME280;62515;52.758;5.076;2022-11-15T04:35:20;100665.13;;;7.97;100.00
74163;BME280;62515;52.758;5.076;2022-11-15T04:38:07;100663.78;;;8.04;100.00
74163;BME280;62515;52.758;5.076;2022-11-15T04:40:53;100669.75;;;8.07;100.00
74163;BME280;62515;52.758;5.076;2022-11-15T04:43:39;100672.31;;;8.09;100.00
74163;BME280;62515;52.758;5.076;2022-11-15T04:46:25;100666.81;;;8.12;100.00
74163;BME280;62515;52.758;5.076;2022-11-15T04:49:11;100665.47;;;8.19;100.00
74163;BME280;62515;52.758;5.076;2022-11-15T04:51:56;100664.22;;;8.24;100.00
74163;BME280;62515;52.758;5.076;2022-11-15T04:54:42;100655.34;;;8.25;100.00
74163;BME280;62515;52.758;5.076;2022-11-15T04:57:28;100661.38;;;8.27;100.00
74163;BME280;62515;52.758;5.076;2022-11-15T05:00:15;100652.97;;;8.35;100.00
74163;BME280;62515;52.758;5.076;2022-11-15T05:03:02;100638.66;;;8.37;100.00
74163;BME280;62515;52.758;5.076;2022-11-15T05:06:06;100642.03;;;8.39;100.00
74163;BME280;62515;52.758;5.076;2022-11-15T05:08:51;100649.78;;;8.43;100.00
74163;BME280;62515;52.758;5.076;2022-11-15T05:11:37;100654.81;;;8.47;100.00
74163;BME280;62515;52.758;5.076;2022-11-15T05:14:22;100659.91;;;8.50;100.00
74163;BME280;62515;52.758;5.076;2022-11-15T05:17:07;100657.16;;;8.52;100.00
74163;BME280;62515;52.758;5.076;2022-11-15T05:19:55;100657.63;;;8.58;100.00
74163;BME280;62515;52.758;5.076;2022-11-15T05:22:40;100654.63;;;8.63;100.00
74163;BME280;62515;52.758;5.076;2022-11-15T05:25:25;100658.78;;;8.67;100.00
74163;BME280;62515;52.758;5.076;2022-11-15T05:28:12;100666.63;;;8.68;100.00
74163;BME280;62515;52.758;5.076;2022-11-15T05:31:00;100662.75;;;8.74;100.00
74163;BME280;62515;52.758;5.076;2022-11-15T05:33:46;100661.47;;;8.79;100.00
74163;BME280;62515;52.758;5.076;2022-11-15T05:36:35;100655.75;;;8.85;100.00
74163;BME280;62515;52.758;5.076;2022-11-15T05:39:22;100661.06;;;8.85;100.00
74163;BME280;62515;52.758;5.076;2022-11-15T05:42:09;100662.78;;;8.86;100.00
74163;BME280;62515;52.758;5.076;2022-11-15T05:44:56;100653.66;;;8.90;100.00
74163;BME280;62515;52.758;5.076;2022-11-15T05:47:43;100649.19;;;8.91;100.00
74163;BME280;62515;52.758;5.076;2022-11-15T05:50:30;100658.13;;;8.90;100.00
74163;BME280;62515;52.758;5.076;2022-11-15T05:53:19;100671.91;;;8.95;100.00
74163;BME280;62515;52.758;5.076;2022-11-15T05:56:06;100670.97;;;8.96;100.00
74163;BME280;62515;52.758;5.076;2022-11-15T05:58:52;100669.81;;;9.00;100.00
74163;BME280;62515;52.758;5.076;2022-11-15T06:01:44;100671.47;;;9.01;100.00
74163;BME280;62515;52.758;5.076;2022-11-15T06:04:29;100668.75;;;9.03;100.00
74163;BME280;62515;52.758;5.076;2022-11-15T06:07:14;100673.84;;;9.06;100.00
74163;BME280;62515;52.758;5.076;2022-11-15T06:10:02;100673.84;;;9.06;100.00
74163;BME280;62515;52.758;5.076;2022-11-15T06:12:56;100684.16;;;9.10;100.00
74163;BME280;62515;52.758;5.076;2022-11-15T06:15:41;100690.28;;;9.11;100.00
74163;BME280;62515;52.758;5.076;2022-11-15T06:18:26;100688.28;;;9.14;100.00
74163;BME280;62515;52.758;5.076;2022-11-15T06:21:11;100697.66;;;9.20;100.00
74163;BME280;62515;52.758;5.076;2022-11-15T06:23:57;100690.22;;;9.25;100.00
74163;BME280;62515;52.758;5.076;2022-11-15T06:26:43;100699.13;;;9.24;100.00
74163;BME280;62515;52.758;5.076;2022-11-15T06:29:29;100711.25;;;9.28;100.00
74163;BME280;62515;52.758;5.076;2022-11-15T06:32:14;100700.41;;;9.31;100.00
74163;BME280;62515;52.758;5.076;2022-11-15T06:35:00;100701.69;;;9.38;100.00
74163;BME280;62515;52.758;5.076;2022-11-15T06:37:45;100700.63;;;9.40;100.00
74163;BME280;62515;52.758;5.076;2022-11-15T06:40:33;100692.78;;;9.39;100.00
74163;BME280;62515;52.758;5.076;2022-11-15T06:43:20;100706.78;;;9.41;100.00
74163;BME280;62515;52.758;5.076;2022-11-15T06:46:06;100702.75;;;9.48;100.00
74163;BME280;62515;52.758;5.076;2022-11-15T06:48:52;100700.63;;;9.53;100.00
74163;BME280;62515;52.758;5.076;2022-11-15T06:51:38;100715.53;;;9.56;100.00
74163;BME280;62515;52.758;5.076;2022-11-15T06:54:23;100713.47;;;9.59;100.00
74163;BME280;62515;52.758;5.076;2022-11-15T06:57:08;100717.22;;;9.57;100.00
74163;BME280;62515;52.758;5.076;2022-11-15T06:59:55;100716.13;;;9.59;100.00
74163;BME280;62515;52.758;5.076;2022-11-15T07:02:41;100719.88;;;9.57;100.00
74163;BME280;62515;52.758;5.076;2022-11-15T07:05:26;100715.53;;;9.56;100.00
74163;BME280;62515;52.758;5.076;2022-11-15T07:08:12;100713.69;;;9.56;100.00
74163;BME280;62515;52.758;5.076;2022-11-15T07:10:58;100707.44;;;9.57;100.00
74163;BME280;62515;52.758;5.076;2022-11-15T07:13:44;100716.34;;;9.56;100.00
74163;BME280;62515;52.758;5.076;2022-11-15T07:16:31;100715.84;;;9.51;100.00
74163;BME280;62515;52.758;5.076;2022-11-15T07:19:16;100717.41;;;9.54;100.00
74163;BME280;62515;52.758;5.076;2022-11-15T07:22:01;100718.38;;;9.53;100.00
74163;BME280;62515;52.758;5.076;2022-11-15T07:24:47;100729.13;;;9.51;100.00
74163;BME280;62515;52.758;5.076;2022-11-15T07:27:33;100715.84;;;9.51;100.00
74163;BME280;62515;52.758;5.076;2022-11-15T07:30:22;100713.28;;;9.50;100.00
74163;BME280;62515;52.758;5.076;2022-11-15T07:33:09;100718.91;;;9.45;100.00
74163;BME280;62515;52.758;5.076;2022-11-15T07:35:58;100721.03;;;9.40;100.00
74163;BME280;62515;52.758;5.076;2022-11-15T07:38:43;100713.38;;;9.35;100.00
74163;BME280;62515;52.758;5.076;2022-11-15T07:41:29;100726.75;;;9.34;100.00
74163;BME280;62515;52.758;5.076;2022-11-15T07:44:15;100723.47;;;9.30;100.00
74163;BME280;62515;52.758;5.076;2022-11-15T07:47:00;100724.88;;;9.36;100.00
74163;BME280;62515;52.758;5.076;2022-11-15T07:49:47;100720.72;;;9.32;100.00
74163;BME280;62515;52.758;5.076;2022-11-15T07:52:32;100714.47;;;9.33;100.00
74163;BME280;62515;52.758;5.076;2022-11-15T07:55:18;100724.66;;;9.39;100.00
74163;BME280;62515;52.758;5.076;2022-11-15T07:58:05;100712.31;;;9.38;100.00
74163;BME280;62515;52.758;5.076;2022-11-15T08:00:50;100714.03;;;9.39;100.00
74163;BME280;62515;52.758;5.076;2022-11-15T08:03:36;100711.03;;;9.43;100.00
74163;BME280;62515;52.758;5.076;2022-11-15T08:06:23;100719.22;;;9.40;100.00
74163;BME280;62515;52.758;5.076;2022-11-15T08:09:09;100723.78;;;9.38;100.00
74163;BME280;62515;52.758;5.076;2022-11-15T08:11:54;100710.59;;;9.37;100.00
74163;BME280;62515;52.758;5.076;2022-11-15T08:14:40;100722.31;;;9.34;100.00
74163;BME280;62515;52.758;5.076;2022-11-15T08:17:25;100714.47;;;9.33;100.00
74163;BME280;62515;52.758;5.076;2022-11-15T08:20:11;100709.66;;;9.38;100.00
74163;BME280;62515;52.758;5.076;2022-11-15T08:22:59;100721.03;;;9.40;100.00
74163;BME280;62515;52.758;5.076;2022-11-15T08:25:45;100722.31;;;9.47;100.00
74163;BME280;62515;52.758;5.076;2022-11-15T08:28:31;100713.91;;;9.53;100.00
74163;BME280;62515;52.758;5.076;2022-11-15T08:31:18;100711.16;;;9.55;100.00
74163;BME280;62515;52.758;5.076;2022-11-15T08:34:04;100707.84;;;9.64;100.00
74163;BME280;62515;52.758;5.076;2022-11-15T08:36:49;100705.75;;;9.69;100.00
74163;BME280;62515;52.758;5.076;2022-11-15T08:39:36;100701.38;;;9.68;100.00
74163;BME280;62515;52.758;5.076;2022-11-15T08:42:22;100690.00;;;9.66;100.00
74163;BME280;62515;52.758;5.076;2022-11-15T08:45:09;100690.22;;;9.75;100.00
74163;BME280;62515;52.758;5.076;2022-11-15T08:47:54;100694.88;;;9.84;100.00
74163;BME280;62515;52.758;5.076;2022-11-15T08:50:40;100690.19;;;10.01;100.00
74163;BME280;62515;52.758;5.076;2022-11-15T08:53:25;100682.25;;;10.12;100.00
74163;BME280;62515;52.758;5.076;2022-11-15T08:56:14;100679.59;;;10.24;100.00
74163;BME280;62515;52.758;5.076;2022-11-15T08:58:59;100676.06;;;10.36;100.00
74163;BME280;62515;52.758;5.076;2022-11-15T09:01:45;100673.66;;;10.44;100.00
74163;BME280;62515;52.758;5.076;2022-11-15T09:04:30;100676.31;;;10.44;100.00
74163;BME280;62515;52.758;5.076;2022-11-15T09:07:15;100673.34;;;10.49;100.00
74163;BME280;62515;52.758;5.076;2022-11-15T09:10:01;100670.38;;;10.65;100.00
74163;BME280;62515;52.758;5.076;2022-11-15T09:12:48;100666.63;;;10.67;100.00
74163;BME280;62515;52.758;5.076;2022-11-15T09:15:33;100670.69;;;10.49;100.00
74163;BME280;62515;52.758;5.076;2022-11-15T09:18:19;100670.31;;;10.54;100.00
74163;BME280;62515;52.758;5.076;2022-11-15T09:21:08;100671.84;;;10.45;100.00
74163;BME280;62515;52.758;5.076;2022-11-15T09:23:55;100662.84;;;10.35;100.00
74163;BME280;62515;52.758;5.076;2022-11-15T09:26:41;100660.94;;;10.37;100.00
74163;BME280;62515;52.758;5.076;2022-11-15T09:29:28;100654.41;;;10.41;100.00
74163;BME280;62515;52.758;5.076;2022-11-15T09:32:13;100660.75;;;10.75;100.00
74163;BME280;62515;52.758;5.076;2022-11-15T09:34:59;100660.50;;;11.13;100.00
74163;BME280;62515;52.758;5.076;2022-11-15T09:37:44;100655.88;;;11.03;100.00
74163;BME280;62515;52.758;5.076;2022-11-15T09:40:30;100662.28;;;11.01;100.00
74163;BME280;62515;52.758;5.076;2022-11-15T09:43:27;100665.53;;;10.93;100.00
74163;BME280;62515;52.758;5.076;2022-11-15T09:46:21;100655.34;;;10.87;100.00
74163;BME280;62515;52.758;5.076;2022-11-15T09:49:13;100658.47;;;10.81;100.00
74163;BME280;62515;52.758;5.076;2022-11-15T09:52:11;100661.16;;;10.81;100.00
74163;BME280;62515;52.758;5.076;2022-11-15T09:54:47;100657.75;;;10.79;100.00
74163;BME280;62515;52.758;5.076;2022-11-15T09:57:24;100656.44;;;10.85;100.00
74163;BME280;62515;52.758;5.076;2022-11-15T10:00:08;100658.41;;;10.94;100.00
74163;BME280;62515;52.758;5.076;2022-11-15T10:03:11;100655.31;;;11.22;100.00
74163;BME280;62515;52.758;5.076;2022-11-15T10:05:40;100649.06;;;11.34;100.00
74163;BME280;62515;52.758;5.076;2022-11-15T10:08:28;100646.75;;;12.19;99.38
74163;BME280;62515;52.758;5.076;2022-11-15T10:11:02;100651.16;;;12.51;96.38
74163;BME280;62515;52.758;5.076;2022-11-15T10:13:51;100644.47;;;12.78;94.70
74163;BME280;62515;52.758;5.076;2022-11-15T10:16:37;100642.19;;;12.73;95.06
74163;BME280;62515;52.758;5.076;2022-11-15T10:19:17;100632.06;;;12.56;95.76
74163;BME280;62515;52.758;5.076;2022-11-15T10:21:57;100633.09;;;12.96;92.28
74163;BME280;62515;52.758;5.076;2022-11-15T10:24:30;100642.19;;;13.26;90.43
74163;BME280;62515;52.758;5.076;2022-11-15T10:27:00;100631.22;;;13.29;91.54
74163;BME280;62515;52.758;5.076;2022-11-15T10:29:27;100647.16;;;13.40;91.36
74163;BME280;62515;52.758;5.076;2022-11-15T10:31:53;100635.25;;;13.02;90.82
74163;BME280;62515;52.758;5.076;2022-11-15T10:34:23;100630.94;;;12.90;90.02
74163;BME280;62515;52.758;5.076;2022-11-15T10:36:55;100629.84;;;13.14;88.60
74163;BME280;62515;52.758;5.076;2022-11-15T10:39:22;100626.13;;;13.26;87.71
74163;BME280;62515;52.758;5.076;2022-11-15T10:41:50;100629.19;;;13.00;88.93
74163;BME280;62515;52.758;5.076;2022-11-15T10:44:23;100617.38;;;13.03;89.46
74163;BME280;62515;52.758;5.076;2022-11-15T10:47:24;100611.72;;;13.38;88.69
74163;BME280;62515;52.758;5.076;2022-11-15T10:50:02;100606.44;;;13.06;88.29
74163;BME280;62515;52.758;5.076;2022-11-15T10:52:31;100578.81;;;13.47;86.79
74163;BME280;62515;52.758;5.076;2022-11-15T10:55:04;100598.34;;;13.68;84.74
74163;BME280;62515;52.758;5.076;2022-11-15T10:57:36;100596.72;;;13.56;84.73
74163;BME280;62515;52.758;5.076;2022-11-15T11:00:07;100587.38;;;13.71;83.70
74163;BME280;62515;52.758;5.076;2022-11-15T11:02:57;100578.63;;;13.69;83.75
74163;BME280;62515;52.758;5.076;2022-11-15T11:05:33;100575.56;;;13.83;84.55
74163;BME280;62515;52.758;5.076;2022-11-15T11:08:21;100568.78;;;13.70;84.30
74163;BME280;62515;52.758;5.076;2022-11-15T11:10:52;100542.47;;;13.65;83.10
74163;BME280;62515;52.758;5.076;2022-11-15T11:13:28;100557.22;;;13.69;84.75
74163;BME280;62515;52.758;5.076;2022-11-15T11:16:06;100550.94;;;13.89;82.43
74163;BME280;62515;52.758;5.076;2022-11-15T11:18:39;100553.94;;;13.56;82.68
74163;BME280;62515;52.758;5.076;2022-11-15T11:21:15;100566.47;;;14.05;81.81
74163;BME280;62515;52.758;5.076;2022-11-15T11:23:51;100557.13;;;13.80;81.35
74163;BME280;62515;52.758;5.076;2022-11-15T11:26:33;100556.63;;;13.56;83.78
74163;BME280;62515;52.758;5.076;2022-11-15T11:29:12;100542.19;;;13.28;82.38
74163;BME280;62515;52.758;5.076;2022-11-15T11:31:47;100563.94;;;13.24;84.00
74163;BME280;62515;52.758;5.076;2022-11-15T11:34:29;100555.84;;;13.35;82.32
74163;BME280;62515;52.758;5.076;2022-11-15T11:37:04;100564.09;;;13.01;83.06
74163;BME280;62515;52.758;5.076;2022-11-15T11:39:41;100560.19;;;12.64;85.38
74163;BME280;62515;52.758;5.076;2022-11-15T11:42:18;100556.03;;;12.19;87.21
74163;BME280;62515;52.758;5.076;2022-11-15T11:44:57;100563.16;;;11.86;89.93
74163;BME280;62515;52.758;5.076;2022-11-15T11:47:31;100563.16;;;11.86;89.38
74163;BME280;62515;52.758;5.076;2022-11-15T11:50:02;100558.81;;;11.85;89.28
74163;BME280;62515;52.758;5.076;2022-11-15T11:52:43;100545.47;;;11.85;89.14
74163;BME280;62515;52.758;5.076;2022-11-15T11:55:15;100546.69;;;11.81;91.07
74163;BME280;62515;52.758;5.076;2022-11-15T11:57:47;100550.31;;;11.69;89.38
74163;BME280;62515;52.758;5.076;2022-11-15T12:00:20;100552.16;;;11.80;90.21
74163;BME280;62515;52.758;5.076;2022-11-15T12:02:53;100536.00;;;11.81;90.42
74163;BME280;62515;52.758;5.076;2022-11-15T12:05:31;100536.63;;;11.85;90.63
74163;BME280;62515;52.758;5.076;2022-11-15T12:08:18;100531.19;;;11.75;89.74
74163;BME280;62515;52.758;5.076;2022-11-15T12:10:51;100528.78;;;11.72;90.66
74163;BME280;62515;52.758;5.076;2022-11-15T12:13:24;100531.53;;;11.71;90.50
74163;BME280;62515;52.758;5.076;2022-11-15T12:15:58;100536.38;;;11.66;89.81
74163;BME280;62515;52.758;5.076;2022-11-15T12:18:30;100521.25;;;11.66;90.51
74163;BME280;62515;52.758;5.076;2022-11-15T12:21:01;100500.88;;;11.65;89.88
74163;BME280;62515;52.758;5.076;2022-11-15T12:23:38;100509.63;;;11.67;90.35
74163;BME280;62515;52.758;5.076;2022-11-15T12:26:08;100499.91;;;11.66;90.21
74163;BME280;62515;52.758;5.076;2022-11-15T12:28:39;100487.56;;;11.65;92.52
74163;BME280;62515;52.758;5.076;2022-11-15T12:31:35;100483.06;;;11.66;91.95
74163;BME280;62515;52.758;5.076;2022-11-15T12:34:12;100482.22;;;11.65;91.91
74163;BME280;62515;52.758;5.076;2022-11-15T12:36:42;100478.84;;;11.63;90.88
74163;BME280;62515;52.758;5.076;2022-11-15T12:39:11;100470.59;;;11.66;90.84
74163;BME280;62515;52.758;5.076;2022-11-15T12:41:40;100466.97;;;11.67;89.62
74163;BME280;62515;52.758;5.076;2022-11-15T12:44:11;100479.44;;;11.78;90.18
74163;BME280;62515;52.758;5.076;2022-11-15T12:47:03;100457.22;;;11.88;90.34
74163;BME280;62515;52.758;5.076;2022-11-15T12:49:45;100456.94;;;12.02;90.72
74163;BME280;62515;52.758;5.076;2022-11-15T12:52:13;100452.22;;;11.95;88.52
74163;BME280;62515;52.758;5.076;2022-11-15T12:55:02;100445.34;;;11.92;90.51
74163;BME280;62515;52.758;5.076;2022-11-15T12:57:50;100446.03;;;11.94;89.86
74163;BME280;62515;52.758;5.076;2022-11-15T13:00:42;100441.97;;;12.11;90.23
74163;BME280;62515;52.758;5.076;2022-11-15T13:03:27;100437.41;;;12.02;88.13
74163;BME280;62515;52.758;5.076;2022-11-15T13:08:57;100421.63;;;11.78;91.06
74163;BME280;62515;52.758;5.076;2022-11-15T13:11:48;100423.22;;;11.70;91.48
74163;BME280;62515;52.758;5.076;2022-11-15T13:14:51;100421.88;;;11.64;93.65
74163;BME280;62515;52.758;5.076;2022-11-15T13:17:33;100412.97;;;11.54;93.66
74163;BME280;62515;52.758;5.076;2022-11-15T13:20:17;100411.53;;;11.50;93.17
74163;BME280;62515;52.758;5.076;2022-11-15T13:22:46;100412.66;;;11.36;95.19
74163;BME280;62515;52.758;5.076;2022-11-15T13:25:46;100400.56;;;11.32;94.96
74163;BME280;62515;52.758;5.076;2022-11-15T13:28:21;100404.56;;;11.27;95.44
74163;BME280;62515;52.758;5.076;2022-11-15T13:30:52;100398.19;;;11.18;94.90
74163;BME280;62515;52.758;5.076;2022-11-15T13:33:21;100398.91;;;11.20;95.04
74163;BME280;62515;52.758;5.076;2022-11-15T13:35:51;100402.41;;;11.21;95.09
74163;BME280;62515;52.758;5.076;2022-11-15T13:38:25;100397.69;;;11.24;94.97
74163;BME280;62515;52.758;5.076;2022-11-15T13:40:57;100385.69;;;11.19;95.16
74163;BME280;62515;52.758;5.076;2022-11-15T13:43:34;100389.34;;;11.18;95.70
74163;BME280;62515;52.758;5.076;2022-11-15T13:46:10;100380.25;;;11.09;95.75
74163;BME280;62515;52.758;5.076;2022-11-15T13:48:39;100371.44;;;11.09;95.90
74163;BME280;62515;52.758;5.076;2022-11-15T13:51:12;100365.38;;;11.07;95.86
74163;BME280;62515;52.758;5.076;2022-11-15T13:53:43;100365.88;;;11.00;96.27
74163;BME280;62515;52.758;5.076;2022-11-15T13:56:20;100367.34;;;10.93;96.46
74163;BME280;62515;52.758;5.076;2022-11-15T13:58:47;100358.66;;;10.91;96.07
74163;BME280;62515;52.758;5.076;2022-11-15T14:01:18;100350.91;;;10.88;96.43
74163;BME280;62515;52.758;5.076;2022-11-15T14:03:50;100344.25;;;10.83;96.96
74163;BME280;62515;52.758;5.076;2022-11-15T14:06:19;100339.78;;;10.83;96.55
74163;BME280;62515;52.758;5.076;2022-11-15T14:11:51;100337.25;;;10.82;96.14
74163;BME280;62515;52.758;5.076;2022-11-15T14:14:20;100335.91;;;10.76;95.85
74163;BME280;62515;52.758;5.076;2022-11-15T14:16:50;100324.53;;;10.74;95.37
74163;BME280;62515;52.758;5.076;2022-11-15T14:19:36;100320.31;;;10.72;95.96
74163;BME280;62515;52.758;5.076;2022-11-15T14:22:12;100325.28;;;10.65;96.17
74163;BME280;62515;52.758;5.076;2022-11-15T14:24:40;100319.38;;;10.62;95.87